createdAt,value
2017-09-04T00:10:19.457Z,34.2
2017-09-04T00:21:18.964Z,33.5
2017-09-04T00:32:19.822Z,33.1
2017-09-04T00:43:19.449Z,32.8
2017-09-04T00:54:19.439Z,31.9
2017-09-04T01:05:20.384Z,31.5
2017-09-04T01:16:20.148Z,32.1
2017-09-04T01:27:19.373Z,31.5
2017-09-04T01:38:20.007Z,31.5
2017-09-04T01:49:19.471Z,48.9
2017-09-04T02:00:20.443Z,30.7
2017-09-04T02:11:19.907Z,30.2
2017-09-04T02:22:19.246Z,30.3
2017-09-04T02:33:19.838Z,30.2
2017-09-04T02:44:19.911Z,30
2017-09-04T02:55:20.086Z,29.7
2017-09-04T03:06:19.512Z,29.8
2017-09-04T03:17:19.722Z,29.8
2017-09-04T03:28:20.031Z,29.4
2017-09-04T03:39:19.726Z,29.5
2017-09-04T03:50:20.089Z,28.5
2017-09-04T04:01:19.044Z,28.5
2017-09-04T04:12:20.001Z,28.7
2017-09-04T04:23:19.397Z,28.6
2017-09-04T04:34:20.092Z,28.1
2017-09-04T04:45:19.088Z,27.6
2017-09-04T04:56:19.430Z,27.8
2017-09-04T05:07:20.228Z,27.6
2017-09-04T05:18:20.057Z,27.7
2017-09-04T05:29:19.375Z,27.8
2017-09-04T05:40:19.235Z,28.8
2017-09-04T05:51:19.539Z,32.6
2017-09-04T06:02:19.262Z,34.2
2017-09-04T06:13:19.297Z,35.4
2017-09-04T06:24:19.909Z,35.5
2017-09-04T06:35:19.294Z,37.2
2017-09-04T06:46:19.307Z,37.4
2017-09-04T06:57:20.437Z,35.4
2017-09-04T07:08:19.955Z,36.1
2017-09-04T07:19:19.993Z,36.7
2017-09-04T07:30:20.320Z,37
2017-09-04T07:41:18.995Z,37.5
2017-09-04T07:52:19.584Z,36.5
2017-09-04T08:03:19.913Z,36.5
2017-09-04T08:14:18.931Z,36.8
2017-09-04T08:25:19.047Z,37
2017-09-04T08:36:18.614Z,36.6
2017-09-04T08:47:20.356Z,37
2017-09-04T08:58:19.317Z,36.8
2017-09-04T09:09:19.366Z,36.6
2017-09-04T09:20:19.163Z,37
2017-09-04T09:31:19.538Z,37.3
2017-09-04T09:42:19.551Z,36.7
2017-09-04T09:53:19.801Z,37.3
2017-09-04T10:04:19.206Z,37.1
2017-09-04T10:15:20.113Z,37.2
2017-09-04T10:26:19.541Z,36.8
2017-09-04T10:37:20.484Z,37.5
2017-09-04T10:48:19.229Z,37
2017-09-04T10:59:20.004Z,37.2
2017-09-04T11:10:19.664Z,36.4
2017-09-04T11:21:19.540Z,37.1
2017-09-04T11:32:18.693Z,36.6
2017-09-04T11:43:20.584Z,37.2
2017-09-04T11:54:18.873Z,44
2017-09-04T12:05:21.523Z,37.1
2017-09-04T12:16:18.922Z,37.1
2017-09-04T12:27:20.876Z,37.1
2017-09-04T12:38:19.351Z,36.3
2017-09-04T12:49:19.420Z,36.6
2017-09-04T13:00:20.516Z,36.9
2017-09-04T13:11:19.454Z,36.4
2017-09-04T13:22:19.126Z,36.5
2017-09-04T13:33:19.343Z,35.4
2017-09-04T13:44:20.158Z,36.7
2017-09-04T13:55:19.852Z,36.6
2017-09-04T14:06:19.404Z,36.1
2017-09-04T14:17:20.862Z,37.3
2017-09-04T14:28:18.820Z,37.8
2017-09-04T14:39:18.774Z,40
2017-09-04T14:50:19.574Z,39.9
2017-09-04T15:01:18.945Z,40.3
2017-09-04T15:12:19.273Z,41.2
2017-09-04T15:23:20.318Z,41.7
2017-09-04T15:34:19.665Z,42.2
2017-09-04T15:45:20.224Z,42.9
2017-09-04T15:56:19.652Z,42.4
2017-09-04T16:07:18.885Z,43.8
2017-09-04T16:18:19.343Z,43.1
2017-09-04T16:29:19.750Z,40.4
2017-09-04T16:40:19.370Z,41.8
2017-09-04T16:51:19.749Z,41
2017-09-04T17:02:19.750Z,39.8
2017-09-04T17:13:18.815Z,38.8
2017-09-04T17:24:19.428Z,37.9
2017-09-04T17:35:19.135Z,37.8
2017-09-04T17:46:19.805Z,36.6
2017-09-04T17:57:19.032Z,36.3
2017-09-04T18:08:19.451Z,36
2017-09-04T18:19:19.868Z,35.4
2017-09-04T18:30:19.808Z,35
2017-09-04T18:41:19.557Z,34.7
2017-09-04T18:52:19.838Z,34.3
2017-09-04T19:03:19.259Z,34
2017-09-04T19:14:19.605Z,34.2
2017-09-04T19:25:20.287Z,34.1
2017-09-04T19:36:19.160Z,33.6
2017-09-04T19:47:20.042Z,33
2017-09-04T19:58:19.986Z,33.5
2017-09-04T20:09:19.048Z,41.4
2017-09-04T20:20:19.620Z,53.5
2017-09-04T20:31:19.020Z,32.1
2017-09-04T20:42:19.072Z,32.6
2017-09-04T20:53:18.651Z,32.1
2017-09-04T21:04:18.612Z,31.9
2017-09-04T21:15:19.430Z,31.5
2017-09-04T21:26:18.781Z,31.5
2017-09-04T21:37:18.653Z,31.1
2017-09-04T21:48:20.090Z,30.9
2017-09-04T21:59:19.100Z,30.4
2017-09-04T22:10:19.095Z,30.7
2017-09-04T22:21:19.045Z,30.3
2017-09-04T22:32:19.574Z,30
2017-09-04T22:43:22.063Z,30.4
2017-09-04T22:54:19.491Z,30
2017-09-04T23:05:20.323Z,29.6
2017-09-04T23:16:19.541Z,29.9
2017-09-04T23:27:19.195Z,29.5
2017-09-04T23:38:19.495Z,28.7
2017-09-04T23:49:18.654Z,29.2
